首页
METAR-TAF:

METAR-TAF

机场 :

Daniel Field Airport

奥古斯塔, 喬治亞, 美国

纬度: 33-28-01N, 经度: 082-02-19W, 海拔: 128米

当前天气观测

该预报发布于35分钟前的15:53 UTC
风速4节,风向多变
温度 31°C
湿度 55%
气压 1016 hPa
能見度: 16.1公里
少量云层高于3600英尺

METAR: KDNL 051553Z AUTO VRB04KT 10SM FEW036 31/21 A3001 RMK AO2 SLP156 T03110206

时间: 12:28 (16:28 UTC)

预报

该预报发布于26分钟前的16:02 UTC
预报有效从05日的 16点(UTC)到 06日的 12点(UTC)
风速6节,风向西南
能見度: 10公里
散云层高于3500英尺
附近有阵雨
从 05日的 1800点(UTC)
风速8节,风向西南
能見度: 10公里
多云层高于3500英尺, 积雨云.
附近有雷暴
从 05日的 2300点(UTC)
风速9节,风向西转西南
能見度: 10公里
散云层高于3500英尺
散云层高于25000英尺
从 06日的 0600点(UTC)
风速5节,风向西南
能見度: 10公里
散云层高于25000英尺

TAF: KDNL 051602Z 0516/0612 23006KT P6SM VCSH SCT035 FM051800 23008KT P6SM VCTS BKN035CB FM052300 24009KT P6SM SCT035 SCT250 FM060600 22005KT P6SM SCT250

超过4000个机场的气象观测和天气预报(METAR&TAF报告)。

可查询的气象台以黄色和红色小点在地图上表示。

将鼠标移到小点上方,可查看气象台名称。

然后点击查看天气观测和预报。

如需切换地图:点击带黑十字的绿色按钮放大地图;点击带横线的绿色按钮缩小地图;或者点击绿色箭头查看邻近地区的地图。


METAR-TAF: